GSPRS EGHH-EGNX
Flight info
| Callsign | GSPRS |
|---|---|
| Flight time | 0h 55m |
| Altitude | 3000 |
| Route | CPT DCT DTY NXMAR |
| Aircraft | AC11/L-SDGRY/S |
Departure
| Time | 2026-05-07 17:59 |
|---|---|
| Airport | Bournemouth Airport (EGHH) |
Arrival
| Time | 2026-05-07 18:54 |
|---|---|
| Airport | East Midlands Airport (EGNX) |
| Time | Latitude | Longitude | Altitude | Speed | Heading |
|---|---|---|---|---|---|
| 2026-05-07 17:49 | 50.77697 | -1.83566 | 42 ft | 0 kts | 267° |
| 2026-05-07 17:55 | 50.77653 | -1.83550 | 42 ft | 13 kts | 153° |
| 2026-05-07 17:55 | 50.77581 | -1.83593 | 42 ft | 16 kts | 241° |
| 2026-05-07 17:55 | 50.77633 | -1.83774 | 42 ft | 24 kts | 307° |
| 2026-05-07 17:55 | 50.77735 | -1.84025 | 42 ft | 30 kts | 301° |
| 2026-05-07 17:56 | 50.77826 | -1.84267 | 42 ft | 8 kts | 296° |
| 2026-05-07 17:56 | 50.77845 | -1.84321 | 42 ft | 0 kts | 302° |
| 2026-05-07 17:57 | 50.77847 | -1.84325 | 42 ft | 2 kts | 302° |
| 2026-05-07 17:57 | 50.77890 | -1.84447 | 42 ft | 21 kts | 299° |
| 2026-05-07 17:57 | 50.77964 | -1.84509 | 42 ft | 9 kts | 78° |
| 2026-05-07 17:58 | 50.77965 | -1.84487 | 42 ft | 0 kts | 77° |
| 2026-05-07 17:58 | 50.77990 | -1.84322 | 42 ft | 37 kts | 78° |
| 2026-05-07 17:58 | 50.78095 | -1.83685 | 59 ft | 76 kts | 75° |
| 2026-05-07 17:59 | 50.78256 | -1.82952 | 319 ft | 69 kts | 77° |
| 2026-05-07 17:59 | 50.78371 | -1.82227 | 576 ft | 64 kts | 86° |
| 2026-05-07 17:59 | 50.78530 | -1.81471 | 688 ft | 87 kts | 48° |
| 2026-05-07 17:59 | 50.79094 | -1.81003 | 878 ft | 94 kts | 29° |
| 2026-05-07 18:00 | 50.79690 | -1.80544 | 1060 ft | 97 kts | 30° |
| 2026-05-07 18:00 | 50.80297 | -1.80073 | 1237 ft | 100 kts | 30° |
| 2026-05-07 18:00 | 50.80926 | -1.79583 | 1413 ft | 102 kts | 30° |
| 2026-05-07 18:00 | 50.81567 | -1.79082 | 1586 ft | 104 kts | 30° |
| 2026-05-07 18:01 | 50.82223 | -1.78571 | 1742 ft | 107 kts | 30° |
| 2026-05-07 18:01 | 50.82920 | -1.78026 | 1816 ft | 118 kts | 28° |
| 2026-05-07 18:01 | 50.83767 | -1.77741 | 1824 ft | 131 kts | 7° |
| 2026-05-07 18:01 | 50.84708 | -1.77587 | 1812 ft | 140 kts | 11° |
| 2026-05-07 18:02 | 50.86609 | -1.76676 | 1802 ft | 145 kts | 25° |
| 2026-05-07 18:02 | 50.87528 | -1.75995 | 1802 ft | 146 kts | 29° |
| 2026-05-07 18:02 | 50.88439 | -1.75249 | 1797 ft | 148 kts | 30° |
| 2026-05-07 18:03 | 50.89347 | -1.74472 | 1805 ft | 149 kts | 31° |
| 2026-05-07 18:03 | 50.90268 | -1.73674 | 1795 ft | 152 kts | 31° |
| 2026-05-07 18:03 | 50.91200 | -1.72864 | 1792 ft | 154 kts | 31° |
| 2026-05-07 18:03 | 50.92141 | -1.72046 | 1778 ft | 154 kts | 31° |
| 2026-05-07 18:04 | 50.93068 | -1.71243 | 1783 ft | 150 kts | 31° |
| 2026-05-07 18:04 | 50.93978 | -1.70456 | 1784 ft | 149 kts | 31° |
| 2026-05-07 18:04 | 50.94866 | -1.69687 | 1878 ft | 141 kts | 31° |
| 2026-05-07 18:04 | 50.95706 | -1.68961 | 2028 ft | 134 kts | 31° |
| 2026-05-07 18:05 | 50.96504 | -1.68269 | 2186 ft | 129 kts | 31° |
| 2026-05-07 18:05 | 50.97284 | -1.67592 | 2345 ft | 126 kts | 31° |
| 2026-05-07 18:05 | 50.98048 | -1.66928 | 2504 ft | 124 kts | 31° |
| 2026-05-07 18:05 | 50.98799 | -1.66275 | 2661 ft | 122 kts | 31° |
| 2026-05-07 18:06 | 50.99537 | -1.65633 | 2825 ft | 120 kts | 31° |
| 2026-05-07 18:06 | 51.00279 | -1.64987 | 2948 ft | 123 kts | 31° |
| 2026-05-07 18:06 | 51.01053 | -1.64310 | 2990 ft | 131 kts | 31° |
| 2026-05-07 18:06 | 51.01867 | -1.63599 | 2991 ft | 139 kts | 31° |
| 2026-05-07 18:07 | 51.02731 | -1.62847 | 2986 ft | 143 kts | 31° |
| 2026-05-07 18:07 | 51.03619 | -1.62074 | 2982 ft | 147 kts | 31° |
| 2026-05-07 18:07 | 51.04525 | -1.61286 | 2979 ft | 150 kts | 31° |
| 2026-05-07 18:07 | 51.05444 | -1.60487 | 2972 ft | 151 kts | 31° |
| 2026-05-07 18:08 | 51.06362 | -1.59688 | 2978 ft | 150 kts | 31° |
| 2026-05-07 18:08 | 51.07284 | -1.58884 | 2977 ft | 151 kts | 31° |
| 2026-05-07 18:08 | 51.08211 | -1.58076 | 2974 ft | 152 kts | 31° |
| 2026-05-07 18:08 | 51.09140 | -1.57264 | 2965 ft | 152 kts | 31° |
| 2026-05-07 18:09 | 51.10065 | -1.56457 | 2968 ft | 150 kts | 31° |
| 2026-05-07 18:09 | 51.10982 | -1.55656 | 2970 ft | 150 kts | 31° |
| 2026-05-07 18:09 | 51.11881 | -1.54870 | 2971 ft | 149 kts | 31° |
| 2026-05-07 18:09 | 51.12790 | -1.54075 | 2972 ft | 149 kts | 31° |
| 2026-05-07 18:10 | 51.13697 | -1.53281 | 2969 ft | 149 kts | 31° |
| 2026-05-07 18:10 | 51.14608 | -1.52483 | 2970 ft | 149 kts | 31° |
| 2026-05-07 18:10 | 51.15513 | -1.51690 | 2971 ft | 148 kts | 31° |
| 2026-05-07 18:10 | 51.16419 | -1.50896 | 2971 ft | 149 kts | 31° |
| 2026-05-07 18:11 | 51.17326 | -1.50101 | 2972 ft | 148 kts | 31° |
| 2026-05-07 18:11 | 51.17924 | -1.49577 | 2974 ft | 148 kts | 31° |
| 2026-05-07 18:11 | 51.19134 | -1.48515 | 2973 ft | 148 kts | 31° |
| 2026-05-07 18:11 | 51.20037 | -1.47723 | 2975 ft | 148 kts | 31° |
| 2026-05-07 18:12 | 51.20939 | -1.46931 | 2976 ft | 148 kts | 31° |
| 2026-05-07 18:12 | 51.21843 | -1.46137 | 2976 ft | 148 kts | 31° |
| 2026-05-07 18:12 | 51.22734 | -1.45353 | 2977 ft | 148 kts | 31° |
| 2026-05-07 18:12 | 51.23637 | -1.44559 | 2975 ft | 148 kts | 31° |
| 2026-05-07 18:13 | 51.24540 | -1.43765 | 2974 ft | 148 kts | 31° |
| 2026-05-07 18:13 | 51.25440 | -1.42973 | 2972 ft | 148 kts | 31° |
| 2026-05-07 18:13 | 51.26340 | -1.42181 | 2977 ft | 147 kts | 31° |
| 2026-05-07 18:13 | 51.27241 | -1.41387 | 2977 ft | 148 kts | 31° |
| 2026-05-07 18:14 | 51.28142 | -1.40593 | 2977 ft | 148 kts | 31° |
| 2026-05-07 18:14 | 51.29048 | -1.39793 | 2975 ft | 148 kts | 31° |
| 2026-05-07 18:14 | 51.29951 | -1.38996 | 2976 ft | 149 kts | 31° |
| 2026-05-07 18:14 | 51.30858 | -1.38196 | 2978 ft | 149 kts | 31° |
| 2026-05-07 18:15 | 51.31763 | -1.37396 | 2975 ft | 149 kts | 31° |
| 2026-05-07 18:15 | 51.32672 | -1.36593 | 2976 ft | 149 kts | 31° |
| 2026-05-07 18:15 | 51.33578 | -1.35793 | 2976 ft | 149 kts | 31° |
| 2026-05-07 18:15 | 51.34473 | -1.35001 | 2975 ft | 149 kts | 31° |
| 2026-05-07 18:16 | 51.35380 | -1.34200 | 2980 ft | 149 kts | 31° |
| 2026-05-07 18:16 | 51.36288 | -1.33395 | 2982 ft | 150 kts | 31° |
| 2026-05-07 18:16 | 51.37201 | -1.32587 | 2978 ft | 150 kts | 30° |
| 2026-05-07 18:16 | 51.38117 | -1.31776 | 2980 ft | 150 kts | 30° |
| 2026-05-07 18:17 | 51.39031 | -1.30965 | 2980 ft | 150 kts | 30° |
| 2026-05-07 18:17 | 51.39945 | -1.30155 | 2980 ft | 150 kts | 30° |
| 2026-05-07 18:17 | 51.40860 | -1.29343 | 2983 ft | 151 kts | 30° |
| 2026-05-07 18:17 | 51.41780 | -1.28527 | 2982 ft | 151 kts | 30° |
| 2026-05-07 18:18 | 51.42698 | -1.27712 | 2978 ft | 151 kts | 30° |
| 2026-05-07 18:18 | 51.43615 | -1.26898 | 2977 ft | 150 kts | 30° |
| 2026-05-07 18:18 | 51.44530 | -1.26085 | 2981 ft | 150 kts | 30° |
| 2026-05-07 18:18 | 51.45444 | -1.25272 | 2978 ft | 150 kts | 30° |
| 2026-05-07 18:19 | 51.46361 | -1.24456 | 2977 ft | 151 kts | 30° |
| 2026-05-07 18:19 | 51.47278 | -1.23640 | 2976 ft | 151 kts | 30° |
| 2026-05-07 18:19 | 51.48197 | -1.22822 | 2976 ft | 151 kts | 30° |
| 2026-05-07 18:19 | 51.49136 | -1.22071 | 2969 ft | 151 kts | 20° |
| 2026-05-07 18:20 | 51.50155 | -1.21791 | 2981 ft | 151 kts | 6° |
| 2026-05-07 18:20 | 51.51201 | -1.21624 | 2976 ft | 151 kts | 5° |
| 2026-05-07 18:20 | 51.52250 | -1.21470 | 2973 ft | 151 kts | 5° |
| 2026-05-07 18:20 | 51.53295 | -1.21320 | 2974 ft | 151 kts | 5° |
| 2026-05-07 18:21 | 51.54341 | -1.21169 | 2974 ft | 151 kts | 5° |
| 2026-05-07 18:21 | 51.55391 | -1.21015 | 2973 ft | 151 kts | 5° |
| 2026-05-07 18:21 | 51.56440 | -1.20859 | 2973 ft | 151 kts | 5° |
| 2026-05-07 18:21 | 51.57488 | -1.20702 | 2972 ft | 151 kts | 5° |
| 2026-05-07 18:22 | 51.58536 | -1.20544 | 2972 ft | 151 kts | 5° |
| 2026-05-07 18:22 | 51.59232 | -1.20439 | 2972 ft | 151 kts | 5° |
| 2026-05-07 18:22 | 51.60640 | -1.20225 | 2974 ft | 153 kts | 5° |
| 2026-05-07 18:22 | 51.61701 | -1.20063 | 2973 ft | 154 kts | 5° |
| 2026-05-07 18:23 | 51.62756 | -1.19902 | 2974 ft | 155 kts | 5° |
| 2026-05-07 18:23 | 51.63830 | -1.19738 | 2972 ft | 156 kts | 5° |
| 2026-05-07 18:23 | 51.64909 | -1.19574 | 2970 ft | 156 kts | 5° |
| 2026-05-07 18:23 | 51.65993 | -1.19408 | 2965 ft | 156 kts | 5° |
| 2026-05-07 18:24 | 51.67069 | -1.19244 | 2980 ft | 156 kts | 5° |
| 2026-05-07 18:24 | 51.68154 | -1.19078 | 2982 ft | 157 kts | 5° |
| 2026-05-07 18:24 | 51.69243 | -1.18912 | 2998 ft | 157 kts | 5° |
| 2026-05-07 18:24 | 51.70335 | -1.18745 | 2988 ft | 157 kts | 5° |
| 2026-05-07 18:25 | 51.71420 | -1.18579 | 3023 ft | 158 kts | 5° |
| 2026-05-07 18:25 | 51.72538 | -1.18408 | 3006 ft | 164 kts | 5° |
| 2026-05-07 18:25 | 51.73683 | -1.18233 | 3001 ft | 166 kts | 5° |
| 2026-05-07 18:25 | 51.74834 | -1.18057 | 2980 ft | 164 kts | 5° |
| 2026-05-07 18:26 | 51.75945 | -1.17886 | 2993 ft | 158 kts | 5° |
| 2026-05-07 18:26 | 51.77036 | -1.17719 | 2998 ft | 156 kts | 5° |
| 2026-05-07 18:26 | 51.78111 | -1.17554 | 2997 ft | 154 kts | 5° |
| 2026-05-07 18:26 | 51.79176 | -1.17391 | 2999 ft | 153 kts | 5° |
| 2026-05-07 18:27 | 51.80239 | -1.17228 | 3001 ft | 153 kts | 5° |
| 2026-05-07 18:27 | 51.81296 | -1.17066 | 2999 ft | 152 kts | 5° |
| 2026-05-07 18:27 | 51.82353 | -1.16903 | 3001 ft | 152 kts | 5° |
| 2026-05-07 18:27 | 51.83051 | -1.16796 | 3001 ft | 152 kts | 5° |
| 2026-05-07 18:28 | 51.84449 | -1.16581 | 2998 ft | 152 kts | 5° |
| 2026-05-07 18:28 | 51.85502 | -1.16419 | 2999 ft | 152 kts | 5° |
| 2026-05-07 18:28 | 51.86550 | -1.16258 | 3001 ft | 152 kts | 5° |
| 2026-05-07 18:28 | 51.87602 | -1.16096 | 3001 ft | 151 kts | 5° |
| 2026-05-07 18:29 | 51.88653 | -1.15934 | 3001 ft | 152 kts | 5° |
| 2026-05-07 18:29 | 51.89706 | -1.15772 | 3000 ft | 152 kts | 5° |
| 2026-05-07 18:29 | 51.90756 | -1.15610 | 3002 ft | 152 kts | 5° |
| 2026-05-07 18:29 | 51.91809 | -1.15447 | 3002 ft | 152 kts | 5° |
| 2026-05-07 18:30 | 51.92863 | -1.15284 | 3002 ft | 152 kts | 5° |
| 2026-05-07 18:30 | 51.93914 | -1.15122 | 3003 ft | 152 kts | 5° |
| 2026-05-07 18:30 | 51.94968 | -1.14959 | 3002 ft | 152 kts | 5° |
| 2026-05-07 18:30 | 51.96021 | -1.14796 | 3005 ft | 152 kts | 5° |
| 2026-05-07 18:31 | 51.97078 | -1.14632 | 3003 ft | 153 kts | 5° |
| 2026-05-07 18:31 | 51.98122 | -1.14470 | 3004 ft | 153 kts | 5° |
| 2026-05-07 18:31 | 51.99183 | -1.14306 | 3003 ft | 153 kts | 5° |
| 2026-05-07 18:31 | 52.00243 | -1.14142 | 3006 ft | 153 kts | 5° |
| 2026-05-07 18:32 | 52.01302 | -1.13977 | 3004 ft | 153 kts | 4° |
| 2026-05-07 18:32 | 52.02360 | -1.13812 | 3006 ft | 153 kts | 4° |
| 2026-05-07 18:32 | 52.03419 | -1.13648 | 3006 ft | 153 kts | 4° |
| 2026-05-07 18:32 | 52.04478 | -1.13485 | 3005 ft | 153 kts | 4° |
| 2026-05-07 18:33 | 52.05538 | -1.13321 | 3007 ft | 153 kts | 4° |
| 2026-05-07 18:33 | 52.06597 | -1.13157 | 3008 ft | 153 kts | 4° |
| 2026-05-07 18:33 | 52.07662 | -1.12991 | 3004 ft | 153 kts | 4° |
| 2026-05-07 18:33 | 52.08710 | -1.12828 | 3003 ft | 153 kts | 4° |
| 2026-05-07 18:34 | 52.09773 | -1.12663 | 3002 ft | 153 kts | 4° |
| 2026-05-07 18:34 | 52.10836 | -1.12497 | 2999 ft | 154 kts | 4° |
| 2026-05-07 18:34 | 52.11899 | -1.12331 | 2999 ft | 153 kts | 4° |
| 2026-05-07 18:34 | 52.12960 | -1.12166 | 3001 ft | 153 kts | 4° |
| 2026-05-07 18:35 | 52.14017 | -1.12002 | 3009 ft | 152 kts | 4° |
| 2026-05-07 18:35 | 52.15073 | -1.11837 | 3012 ft | 152 kts | 4° |
| 2026-05-07 18:35 | 52.16130 | -1.11672 | 3012 ft | 153 kts | 4° |
| 2026-05-07 18:35 | 52.17186 | -1.11507 | 3012 ft | 153 kts | 4° |
| 2026-05-07 18:36 | 52.17888 | -1.11436 | 3010 ft | 152 kts | 358° |
| 2026-05-07 18:36 | 52.18930 | -1.11683 | 3015 ft | 151 kts | 346° |
| 2026-05-07 18:36 | 52.19959 | -1.12035 | 3012 ft | 151 kts | 346° |
| 2026-05-07 18:36 | 52.20992 | -1.12391 | 3012 ft | 152 kts | 345° |
| 2026-05-07 18:37 | 52.22025 | -1.12749 | 3011 ft | 152 kts | 346° |
| 2026-05-07 18:37 | 52.23058 | -1.13106 | 3011 ft | 151 kts | 346° |
| 2026-05-07 18:37 | 52.24088 | -1.13461 | 3010 ft | 151 kts | 345° |
| 2026-05-07 18:37 | 52.25122 | -1.13817 | 3011 ft | 152 kts | 346° |
| 2026-05-07 18:38 | 52.26154 | -1.14173 | 3011 ft | 152 kts | 346° |
| 2026-05-07 18:38 | 52.27190 | -1.14529 | 3010 ft | 152 kts | 346° |
| 2026-05-07 18:38 | 52.28224 | -1.14885 | 3009 ft | 152 kts | 346° |
| 2026-05-07 18:38 | 52.29257 | -1.15241 | 3010 ft | 152 kts | 346° |
| 2026-05-07 18:39 | 52.30289 | -1.15597 | 3009 ft | 152 kts | 346° |
| 2026-05-07 18:39 | 52.31327 | -1.15955 | 3009 ft | 152 kts | 346° |
| 2026-05-07 18:39 | 52.32349 | -1.16307 | 3008 ft | 152 kts | 346° |
| 2026-05-07 18:39 | 52.33383 | -1.16664 | 3009 ft | 152 kts | 346° |
| 2026-05-07 18:40 | 52.34419 | -1.17021 | 3008 ft | 152 kts | 346° |
| 2026-05-07 18:40 | 52.35452 | -1.17378 | 3008 ft | 152 kts | 346° |
| 2026-05-07 18:40 | 52.36484 | -1.17734 | 3007 ft | 152 kts | 346° |
| 2026-05-07 18:40 | 52.37518 | -1.18092 | 3007 ft | 152 kts | 346° |
| 2026-05-07 18:41 | 52.38561 | -1.18453 | 2944 ft | 156 kts | 346° |
| 2026-05-07 18:41 | 52.39653 | -1.18834 | 2778 ft | 164 kts | 346° |
| 2026-05-07 18:41 | 52.40787 | -1.19228 | 2609 ft | 169 kts | 346° |
| 2026-05-07 18:41 | 52.41948 | -1.19629 | 2434 ft | 171 kts | 347° |
| 2026-05-07 18:42 | 52.43115 | -1.20033 | 2260 ft | 172 kts | 347° |
| 2026-05-07 18:42 | 52.44284 | -1.20438 | 2109 ft | 171 kts | 347° |
| 2026-05-07 18:42 | 52.45436 | -1.20836 | 2022 ft | 167 kts | 347° |
| 2026-05-07 18:42 | 52.46554 | -1.21223 | 2004 ft | 162 kts | 347° |
| 2026-05-07 18:43 | 52.47629 | -1.21596 | 2001 ft | 158 kts | 347° |
| 2026-05-07 18:43 | 52.48711 | -1.21971 | 2001 ft | 156 kts | 347° |
| 2026-05-07 18:43 | 52.49765 | -1.22337 | 2003 ft | 154 kts | 347° |
| 2026-05-07 18:43 | 52.50813 | -1.22702 | 2001 ft | 153 kts | 347° |
| 2026-05-07 18:44 | 52.51856 | -1.23065 | 2006 ft | 153 kts | 347° |
| 2026-05-07 18:44 | 52.52889 | -1.23425 | 2004 ft | 154 kts | 346° |
| 2026-05-07 18:44 | 52.53936 | -1.23790 | 2003 ft | 154 kts | 347° |
| 2026-05-07 18:44 | 52.54986 | -1.24156 | 1997 ft | 154 kts | 347° |
| 2026-05-07 18:45 | 52.56033 | -1.24521 | 1999 ft | 153 kts | 347° |
| 2026-05-07 18:45 | 52.57072 | -1.24883 | 2001 ft | 152 kts | 347° |
| 2026-05-07 18:45 | 52.58111 | -1.25246 | 2001 ft | 152 kts | 347° |
| 2026-05-07 18:45 | 52.59147 | -1.25608 | 2002 ft | 152 kts | 347° |
| 2026-05-07 18:46 | 52.60181 | -1.25969 | 2015 ft | 152 kts | 347° |
| 2026-05-07 18:46 | 52.61238 | -1.26286 | 1996 ft | 157 kts | 349° |
| 2026-05-07 18:46 | 52.62333 | -1.26588 | 1876 ft | 165 kts | 349° |
| 2026-05-07 18:46 | 52.63469 | -1.26905 | 1802 ft | 165 kts | 349° |
| 2026-05-07 18:47 | 52.64582 | -1.27219 | 1801 ft | 159 kts | 351° |
| 2026-05-07 18:47 | 52.65659 | -1.27567 | 1801 ft | 156 kts | 350° |
| 2026-05-07 18:47 | 52.66718 | -1.27935 | 1803 ft | 154 kts | 350° |
| 2026-05-07 18:47 | 52.67763 | -1.28301 | 1802 ft | 153 kts | 350° |
| 2026-05-07 18:48 | 52.68804 | -1.28664 | 1803 ft | 152 kts | 349° |
| 2026-05-07 18:48 | 52.69842 | -1.29026 | 1803 ft | 153 kts | 349° |
| 2026-05-07 18:48 | 52.70882 | -1.29389 | 1803 ft | 153 kts | 349° |
| 2026-05-07 18:48 | 52.71921 | -1.29752 | 1801 ft | 153 kts | 349° |
| 2026-05-07 18:49 | 52.72913 | -1.30101 | 1797 ft | 143 kts | 349° |
| 2026-05-07 18:49 | 52.73848 | -1.30434 | 1754 ft | 137 kts | 349° |
| 2026-05-07 18:49 | 52.74792 | -1.30770 | 1590 ft | 140 kts | 349° |
| 2026-05-07 18:49 | 52.75752 | -1.31111 | 1429 ft | 141 kts | 349° |
| 2026-05-07 18:50 | 52.76708 | -1.31452 | 1322 ft | 138 kts | 349° |
| 2026-05-07 18:50 | 52.77627 | -1.31780 | 1294 ft | 132 kts | 349° |
| 2026-05-07 18:50 | 52.78504 | -1.32095 | 1291 ft | 127 kts | 349° |
| 2026-05-07 18:50 | 52.79223 | -1.32835 | 1277 ft | 124 kts | 302° |
| 2026-05-07 18:51 | 52.79391 | -1.34166 | 1315 ft | 116 kts | 271° |
| 2026-05-07 18:51 | 52.79423 | -1.35473 | 1294 ft | 111 kts | 269° |
| 2026-05-07 18:51 | 52.79450 | -1.36715 | 1286 ft | 105 kts | 270° |
| 2026-05-07 18:51 | 52.79477 | -1.37907 | 1286 ft | 103 kts | 269° |
| 2026-05-07 18:52 | 52.79522 | -1.39130 | 1183 ft | 109 kts | 277° |
| 2026-05-07 18:52 | 52.79998 | -1.40084 | 1012 ft | 114 kts | 340° |
| 2026-05-07 18:52 | 52.80768 | -1.40240 | 912 ft | 111 kts | 359° |
| 2026-05-07 18:52 | 52.81542 | -1.40309 | 814 ft | 110 kts | 359° |
| 2026-05-07 18:53 | 52.82250 | -1.40080 | 800 ft | 99 kts | 35° |
| 2026-05-07 18:53 | 52.82745 | -1.39324 | 767 ft | 97 kts | 53° |
| 2026-05-07 18:53 | 52.83011 | -1.38341 | 719 ft | 94 kts | 81° |
| 2026-05-07 18:53 | 52.83073 | -1.37335 | 728 ft | 83 kts | 91° |
| 2026-05-07 18:54 | 52.83063 | -1.36401 | 627 ft | 80 kts | 94° |
| 2026-05-07 18:54 | 52.83059 | -1.35458 | 469 ft | 79 kts | 91° |
| 2026-05-07 18:54 | 52.83077 | -1.34622 | 318 ft | 64 kts | 93° |
| 2026-05-07 18:54 | 52.83074 | -1.34052 | 310 ft | 35 kts | 91° |
| 2026-05-07 18:55 | 52.83071 | -1.33783 | 310 ft | 10 kts | 109° |
| 2026-05-07 18:55 | 52.83031 | -1.33735 | 310 ft | 9 kts | 173° |
| 2026-05-07 18:55 | 52.82992 | -1.33733 | 310 ft | 8 kts | 182° |
| 2026-05-07 18:55 | 52.82856 | -1.33722 | 310 ft | 27 kts | 169° |
| 2026-05-07 18:56 | 52.82769 | -1.33706 | 310 ft | 8 kts | 200° |
| 2026-05-07 18:56 | 52.82715 | -1.33815 | 310 ft | 16 kts | 234° |
| 2026-05-07 18:56 | 52.82677 | -1.33898 | 310 ft | 6 kts | 228° |
| 2026-05-07 18:56 | 52.82672 | -1.33909 | 310 ft | 0 kts | 235° |